createdAt,value
2016-11-19T00:00:05.885Z,21.71
2016-11-19T00:01:05.600Z,21.75
2016-11-19T00:02:05.930Z,21.75
2016-11-19T00:03:05.962Z,21.75
2016-11-19T00:04:05.678Z,21.75
2016-11-19T00:05:06.024Z,21.67
2016-11-19T00:06:05.729Z,21.67
2016-11-19T00:07:05.769Z,21.67
2016-11-19T00:08:06.089Z,21.69
2016-11-19T00:09:06.122Z,21.68
2016-11-19T00:10:06.155Z,21.72
2016-11-19T00:11:06.180Z,21.54
2016-11-19T00:12:06.213Z,21.68
2016-11-19T00:13:06.226Z,21.56
2016-11-19T00:14:05.950Z,21.61
2016-11-19T00:15:06.299Z,21.58
2016-11-19T00:16:06.330Z,21.61
2016-11-19T00:17:06.036Z,21.61
2016-11-19T00:18:06.071Z,21.59
2016-11-19T00:19:06.094Z,21.59
2016-11-19T00:20:06.123Z,21.58
2016-11-19T00:21:06.147Z,21.58
2016-11-19T00:22:06.175Z,21.64
2016-11-19T00:23:06.205Z,21.56
2016-11-19T00:24:06.537Z,21.56
2016-11-19T00:25:06.267Z,21.53
2016-11-19T00:26:06.588Z,21.56
2016-11-19T00:27:06.331Z,21.59
2016-11-19T00:28:06.665Z,21.59
2016-11-19T00:29:38.470Z,21.52
2016-11-19T00:30:06.710Z,21.47
2016-11-19T00:31:06.731Z,21.44
2016-11-19T00:32:06.451Z,21.49
2016-11-19T00:33:06.172Z,21.5
2016-11-19T00:34:06.505Z,21.47
2016-11-19T00:35:06.531Z,21.47
2016-11-19T00:36:06.555Z,21.43
2016-11-19T00:37:06.912Z,21.47
2016-11-19T00:38:06.921Z,21.49
2016-11-19T00:39:06.645Z,21.44
2016-11-19T00:40:06.977Z,21.46
2016-11-19T00:41:06.995Z,21.44
2016-11-19T00:42:07.036Z,21.49
2016-11-19T00:43:06.764Z,21.42
2016-11-19T00:44:06.475Z,21.4
2016-11-19T00:45:06.829Z,21.43
2016-11-19T00:46:06.835Z,21.43
2016-11-19T00:47:06.880Z,21.38
2016-11-19T00:48:06.588Z,21.4
2016-11-19T00:49:06.913Z,21.38
2016-11-19T00:50:07.253Z,21.38
2016-11-19T00:51:06.990Z,21.42
2016-11-19T00:52:07.323Z,21.32
2016-11-19T00:53:07.024Z,21.43
2016-11-19T00:54:07.373Z,21.37
2016-11-19T00:55:07.413Z,21.35
2016-11-19T00:56:07.435Z,21.32
2016-11-19T00:57:07.159Z,21.38
2016-11-19T00:58:07.469Z,21.4
2016-11-19T00:59:07.517Z,21.34
2016-11-19T01:00:07.525Z,21.35
2016-11-19T01:01:07.270Z,21.31
2016-11-19T01:02:07.290Z,21.43
2016-11-19T01:03:07.621Z,21.34
2016-11-19T01:04:07.048Z,21.35
2016-11-19T01:05:07.074Z,21.35
2016-11-19T01:06:07.698Z,21.4
2016-11-19T01:07:07.438Z,21.34
2016-11-19T01:08:07.443Z,21.42
2016-11-19T01:09:07.780Z,21.32
2016-11-19T01:10:07.513Z,21.32
2016-11-19T01:11:07.838Z,21.28
2016-11-19T01:12:07.563Z,21.4
2016-11-19T01:13:07.597Z,21.34
2016-11-19T01:14:07.920Z,21.38
2016-11-19T01:15:07.644Z,21.29
2016-11-19T01:16:07.989Z,21.38
2016-11-19T01:17:07.410Z,21.34
2016-11-19T01:18:07.739Z,21.28
2016-11-19T01:19:08.076Z,21.32
2016-11-19T01:20:07.785Z,21.24
2016-11-19T01:21:08.122Z,21.32
2016-11-19T01:22:08.150Z,21.32
2016-11-19T01:23:07.868Z,21.34
2016-11-19T01:24:07.886Z,21.32
2016-11-19T01:25:08.229Z,21.22
2016-11-19T01:26:08.261Z,21.24
2016-11-19T01:27:07.989Z,21.31
2016-11-19T01:28:07.995Z,21.25
2016-11-19T01:29:08.332Z,21.24
2016-11-19T01:30:08.396Z,21.24
2016-11-19T01:31:08.091Z,21.21
2016-11-19T01:32:07.806Z,21.21
2016-11-19T01:33:08.450Z,21.25
2016-11-19T01:34:07.863Z,21.34
2016-11-19T01:35:08.209Z,21.28
2016-11-19T01:36:08.513Z,21.4
2016-11-19T01:37:08.561Z,21.21
2016-11-19T01:38:08.588Z,21.27
2016-11-19T01:39:08.319Z,21.32
2016-11-19T01:40:08.336Z,21.31
2016-11-19T01:41:08.360Z,21.28
2016-11-19T01:42:08.702Z,21.28
2016-11-19T01:43:08.734Z,21.22
2016-11-19T01:44:08.443Z,21.24
2016-11-19T01:45:08.792Z,21.28
2016-11-19T01:46:08.505Z,21.28
2016-11-19T01:47:08.849Z,21.25
2016-11-19T01:48:08.553Z,21.34
2016-11-19T01:49:08.590Z,21.29
2016-11-19T01:50:08.912Z,21.25
2016-11-19T01:51:08.640Z,21.32
2016-11-19T01:52:08.960Z,21.25
2016-11-19T01:53:09.002Z,21.27
2016-11-19T01:54:09.029Z,21.21
2016-11-19T01:55:08.751Z,21.22
2016-11-19T01:56:08.779Z,21.16
2016-11-19T01:57:08.816Z,21.24
2016-11-19T01:58:09.141Z,21.22
2016-11-19T01:59:09.169Z,21.22
2016-11-19T02:00:09.178Z,21.22
2016-11-19T02:01:09.234Z,21.24
2016-11-19T02:02:08.975Z,21.21
2016-11-19T02:03:09.276Z,21.21
2016-11-19T02:04:08.693Z,21.17
2016-11-19T02:05:09.333Z,21.22
2016-11-19T02:06:09.053Z,21.12
2016-11-19T02:07:09.082Z,21.25
2016-11-19T02:08:09.411Z,21.16
2016-11-19T02:09:09.444Z,21.19
2016-11-19T02:10:09.156Z,21.17
2016-11-19T02:11:09.193Z,21.17
2016-11-19T02:12:09.522Z,21.16
2016-11-19T02:13:09.247Z,21.16
2016-11-19T02:14:09.575Z,21.16
2016-11-19T02:15:09.624Z,21.19
2016-11-19T02:16:09.616Z,21.21
2016-11-19T02:17:09.349Z,21.14
2016-11-19T02:18:09.669Z,21.13
2016-11-19T02:19:09.407Z,21.25
2016-11-19T02:20:09.751Z,21.21
2016-11-19T02:21:09.157Z,21.12
2016-11-19T02:22:09.804Z,21.16
2016-11-19T02:23:09.801Z,21.19
2016-11-19T02:24:09.242Z,21.13
2016-11-19T02:25:09.880Z,21.06
2016-11-19T02:26:09.900Z,21.07
2016-11-19T02:27:09.624Z,21.16
2016-11-19T02:28:09.957Z,21.16
2016-11-19T02:29:09.690Z,21.13
2016-11-19T02:30:10.006Z,21.13
2016-11-19T02:31:09.744Z,21.07
2016-11-19T02:32:09.784Z,21.13
2016-11-19T02:33:10.101Z,21.14
2016-11-19T02:34:10.127Z,21.17
2016-11-19T02:35:10.162Z,21.13
2016-11-19T02:36:10.171Z,21.12
2016-11-19T02:37:09.908Z,21.19
2016-11-19T02:38:10.221Z,21.1
2016-11-19T02:39:09.957Z,21.1
2016-11-19T02:40:09.987Z,21.16
2016-11-19T02:41:10.315Z,21.1
2016-11-19T02:42:10.040Z,21.16
2016-11-19T02:43:09.768Z,21.12
2016-11-19T02:44:10.394Z,21.13
2016-11-19T02:45:10.118Z,21.12
2016-11-19T02:46:10.151Z,21.13
2016-11-19T02:47:10.188Z,21.13
2016-11-19T02:48:10.212Z,21.13
2016-11-19T02:49:10.237Z,21.12
2016-11-19T02:50:10.557Z,21.1
2016-11-19T02:51:10.289Z,21.07
2016-11-19T02:52:10.623Z,21.03
2016-11-19T02:53:10.336Z,21.12
2016-11-19T02:54:10.356Z,21.09
2016-11-19T02:55:10.397Z,21.07
2016-11-19T02:56:10.438Z,21.04
2016-11-19T02:57:10.459Z,21.1
2016-11-19T02:58:10.775Z,21.07
2016-11-19T02:59:10.504Z,21.07
2016-11-19T03:00:10.825Z,21.03
2016-11-19T03:01:10.868Z,21.13
2016-11-19T03:02:10.594Z,21.1
2016-11-19T03:03:10.615Z,21.06
2016-11-19T03:04:10.945Z,21.13
2016-11-19T03:05:10.661Z,21.06
2016-11-19T03:06:11.002Z,21.1
2016-11-19T03:07:10.714Z,21.06
2016-11-19T03:08:10.456Z,21.1
2016-11-19T03:09:11.080Z,21.1
2016-11-19T03:10:11.100Z,21.07
2016-11-19T03:11:11.141Z,21.01
2016-11-19T03:12:10.866Z,21.04
2016-11-19T03:13:10.579Z,21.09
2016-11-19T03:14:11.218Z,21.09
2016-11-19T03:15:10.948Z,21.09
2016-11-19T03:16:11.265Z,21.07
2016-11-19T03:17:10.989Z,21.1
2016-11-19T03:18:11.031Z,21.06
2016-11-19T03:19:11.359Z,20.99
2016-11-19T03:20:11.100Z,21.04
2016-11-19T03:21:11.416Z,21.03
2016-11-19T03:22:11.426Z,21.03
2016-11-19T03:23:11.173Z,21.04
2016-11-19T03:24:11.187Z,21.06
2016-11-19T03:25:11.523Z,21.06
2016-11-19T03:26:11.552Z,20.98
2016-11-19T03:27:11.260Z,21.03
2016-11-19T03:28:10.986Z,21.06
2016-11-19T03:29:11.337Z,20.99
2016-11-19T03:30:11.654Z,21.03
2016-11-19T03:31:11.671Z,21.04
2016-11-19T03:32:11.407Z,21.06
2016-11-19T03:33:11.440Z,21.03
2016-11-19T03:34:11.769Z,21.07
2016-11-19T03:35:11.787Z,21.04
2016-11-19T03:36:11.519Z,21.04
2016-11-19T03:37:11.847Z,21.01
2016-11-19T03:38:11.277Z,21.03
2016-11-19T03:39:11.604Z,20.99
2016-11-19T03:40:11.930Z,20.94
2016-11-19T03:41:11.693Z,20.97
2016-11-19T03:42:11.978Z,20.94
2016-11-19T03:43:12.015Z,21.04
2016-11-19T03:44:12.032Z,21.01
2016-11-19T03:45:11.761Z,21.03
2016-11-19T03:46:11.790Z,21.06
2016-11-19T03:47:11.511Z,21.07
2016-11-19T03:48:11.543Z,21.04
2016-11-19T03:49:11.571Z,20.94
2016-11-19T03:50:11.597Z,20.92
2016-11-19T03:51:11.926Z,21.04
2016-11-19T03:52:12.255Z,20.99
2016-11-19T03:53:12.286Z,21.09
2016-11-19T03:54:12.020Z,21.07
2016-11-19T03:55:12.344Z,21.06
2016-11-19T03:56:11.749Z,21.04
2016-11-19T03:57:12.394Z,21.07
2016-11-19T03:58:12.110Z,20.97
2016-11-19T03:59:12.443Z,20.94
2016-11-19T04:00:12.176Z,20.94
2016-11-19T04:01:12.508Z,20.97
2016-11-19T04:02:12.526Z,20.92
2016-11-19T04:03:12.555Z,20.95
2016-11-19T04:04:12.283Z,20.98
2016-11-19T04:05:12.609Z,21.06
2016-11-19T04:06:12.340Z,20.98
2016-11-19T04:07:12.673Z,20.95
2016-11-19T04:08:12.706Z,20.99
2016-11-19T04:09:12.735Z,20.94
2016-11-19T04:10:12.747Z,20.94
2016-11-19T04:11:12.772Z,20.98
2016-11-19T04:12:12.820Z,20.95
2016-11-19T04:13:12.534Z,20.97
2016-11-19T04:14:12.562Z,20.98
2016-11-19T04:15:12.579Z,20.94
2016-11-19T04:16:12.615Z,20.94
2016-11-19T04:17:12.633Z,20.92
2016-11-19T04:18:12.666Z,20.97
2016-11-19T04:19:12.994Z,20.94
2016-11-19T04:20:13.026Z,20.95
2016-11-19T04:21:12.431Z,20.97
2016-11-19T04:22:13.077Z,20.95
2016-11-19T04:23:13.109Z,21.01
2016-11-19T04:24:12.821Z,20.94
2016-11-19T04:25:13.162Z,20.95
2016-11-19T04:26:12.883Z,20.92
2016-11-19T04:27:12.904Z,20.95
2016-11-19T04:28:13.253Z,21.03
2016-11-19T04:29:13.269Z,20.97
2016-11-19T04:30:13.295Z,21.01
2016-11-19T04:31:13.016Z,20.97
2016-11-19T04:32:13.360Z,20.94
2016-11-19T04:33:13.063Z,20.99
2016-11-19T04:34:12.797Z,20.85
2016-11-19T04:35:13.132Z,20.99
2016-11-19T04:36:13.454Z,20.91
2016-11-19T04:37:13.487Z,20.97
2016-11-19T04:38:13.211Z,20.92
2016-11-19T04:39:13.245Z,20.88
2016-11-19T04:40:13.263Z,20.99
2016-11-19T04:41:13.305Z,20.95
2016-11-19T04:42:13.315Z,20.88
2016-11-19T04:43:13.347Z,20.88
2016-11-19T04:44:13.384Z,20.98
2016-11-19T04:45:13.709Z,20.99
2016-11-19T04:46:13.425Z,21.01
2016-11-19T04:47:13.166Z,20.94
2016-11-19T04:48:13.475Z,20.88
2016-11-19T04:49:13.212Z,21.03
2016-11-19T04:50:13.531Z,20.92
2016-11-19T04:51:13.861Z,21.04
2016-11-19T04:52:13.889Z,21.01
2016-11-19T04:53:13.923Z,20.98
2016-11-19T04:54:13.648Z,20.98
2016-11-19T04:55:13.980Z,20.99
2016-11-19T04:56:13.703Z,20.95
2016-11-19T04:57:14.033Z,20.97
2016-11-19T04:58:14.066Z,20.99
2016-11-19T04:59:13.491Z,20.92
2016-11-19T05:00:13.823Z,20.92
2016-11-19T05:01:13.837Z,20.87
2016-11-19T05:02:14.171Z,20.91
2016-11-19T05:03:13.886Z,20.95
2016-11-19T05:04:13.923Z,20.87
2016-11-19T05:05:14.247Z,20.91
2016-11-19T05:06:14.281Z,20.92
2016-11-19T05:07:13.692Z,20.87
2016-11-19T05:08:14.337Z,20.82
2016-11-19T05:09:14.358Z,20.87
2016-11-19T05:10:14.078Z,20.91
2016-11-19T05:11:13.816Z,20.87
2016-11-19T05:12:14.432Z,20.89
2016-11-19T05:13:14.161Z,20.87
2016-11-19T05:14:14.498Z,20.89
2016-11-19T05:15:14.572Z,20.87
2016-11-19T05:16:14.248Z,20.88
2016-11-19T05:17:14.573Z,20.85
2016-11-19T05:18:14.608Z,20.87
2016-11-19T05:19:14.325Z,20.84
2016-11-19T05:20:14.357Z,20.84
2016-11-19T05:21:14.387Z,20.89
2016-11-19T05:22:14.711Z,20.89
2016-11-19T05:23:14.740Z,20.94
2016-11-19T05:24:14.453Z,20.85
2016-11-19T05:25:14.789Z,20.88
2016-11-19T05:26:14.518Z,20.88
2016-11-19T05:27:14.851Z,20.88
2016-11-19T05:28:14.871Z,20.92
2016-11-19T05:29:14.602Z,20.89
2016-11-19T05:30:14.637Z,20.87
2016-11-19T05:31:14.644Z,20.87
2016-11-19T05:32:14.678Z,20.95
2016-11-19T05:33:15.022Z,20.89
2016-11-19T05:34:14.724Z,20.88
2016-11-19T05:35:15.069Z,20.94
2016-11-19T05:36:14.795Z,20.98
2016-11-19T05:37:15.127Z,20.94
2016-11-19T05:38:14.543Z,20.97
2016-11-19T05:39:15.188Z,20.95
2016-11-19T05:40:14.908Z,21.01
2016-11-19T05:41:15.229Z,20.98
2016-11-19T05:42:14.954Z,21.04
2016-11-19T05:43:14.984Z,21.03
2016-11-19T05:44:15.024Z,21.03
2016-11-19T05:45:15.049Z,21.1
2016-11-19T05:46:15.360Z,21.04
2016-11-19T05:47:15.094Z,21.1
2016-11-19T05:48:15.119Z,21.13
2016-11-19T05:49:15.455Z,21.13
2016-11-19T05:50:15.515Z,21.03
2016-11-19T05:51:15.188Z,21.07
2016-11-19T05:52:14.922Z,21.13
2016-11-19T05:53:15.558Z,21.16
2016-11-19T05:54:14.971Z,21.16
2016-11-19T05:55:15.311Z,21.21
2016-11-19T05:56:15.639Z,21.19
2016-11-19T05:57:15.661Z,21.29
2016-11-19T05:58:15.376Z,21.25
2016-11-19T05:59:15.718Z,21.28
2016-11-19T06:00:15.754Z,21.21
2016-11-19T06:01:15.471Z,21.24
2016-11-19T06:02:15.499Z,21.32
2016-11-19T06:03:15.220Z,21.28
2016-11-19T06:04:15.559Z,21.34
2016-11-19T06:05:15.885Z,21.37
2016-11-19T06:06:15.910Z,21.35
2016-11-19T06:07:15.951Z,21.35
2016-11-19T06:08:15.967Z,21.35
2016-11-19T06:09:15.380Z,21.38
2016-11-19T06:10:16.013Z,21.38
2016-11-19T06:11:16.049Z,21.34
2016-11-19T06:12:16.078Z,21.46
2016-11-19T06:13:15.811Z,21.43
2016-11-19T06:14:15.819Z,21.44
2016-11-19T06:15:15.860Z,21.47
2016-11-19T06:16:16.184Z,21.53
2016-11-19T06:17:15.909Z,21.5
2016-11-19T06:18:16.265Z,21.49
2016-11-19T06:19:16.266Z,21.47
2016-11-19T06:20:15.991Z,21.46
2016-11-19T06:21:16.323Z,21.54
2016-11-19T06:22:16.357Z,21.59
2016-11-19T06:23:16.089Z,21.52
2016-11-19T06:24:16.101Z,21.59
2016-11-19T06:25:16.438Z,21.54
2016-11-19T06:26:16.454Z,21.61
2016-11-19T06:27:15.875Z,21.68
2016-11-19T06:28:16.516Z,21.64
2016-11-19T06:29:16.232Z,21.58
2016-11-19T06:30:16.253Z,21.59
2016-11-19T06:31:16.589Z,21.58
2016-11-19T06:32:16.323Z,21.71
2016-11-19T06:33:16.655Z,21.56
2016-11-19T06:34:16.363Z,21.5
2016-11-19T06:35:16.704Z,21.61
2016-11-19T06:36:16.416Z,21.64
2016-11-19T06:37:16.777Z,21.62
2016-11-19T06:38:16.807Z,21.67
2016-11-19T06:39:16.827Z,21.56
2016-11-19T06:40:16.851Z,21.69
2016-11-19T06:41:16.576Z,21.65
2016-11-19T06:42:16.588Z,21.68
2016-11-19T06:43:16.321Z,21.68
2016-11-19T06:44:16.942Z,21.68
2016-11-19T06:45:16.971Z,21.67
2016-11-19T06:46:17.007Z,21.75
2016-11-19T06:47:17.036Z,21.67
2016-11-19T06:48:16.760Z,21.74
2016-11-19T06:49:16.481Z,21.72
2016-11-19T06:50:16.502Z,21.75
2016-11-19T06:51:17.142Z,21.77
2016-11-19T06:52:16.870Z,21.72
2016-11-19T06:53:16.896Z,21.77
2016-11-19T06:54:16.927Z,21.86
2016-11-19T06:55:17.301Z,21.88
2016-11-19T06:56:16.981Z,21.84
2016-11-19T06:57:16.698Z,21.88
2016-11-19T06:58:17.031Z,21.9
2016-11-19T06:59:17.376Z,21.86
2016-11-19T07:00:17.396Z,21.82
2016-11-19T07:01:17.111Z,21.75
2016-11-19T07:02:16.838Z,21.77
2016-11-19T07:03:17.479Z,21.77
2016-11-19T07:04:17.499Z,21.83
2016-11-19T07:05:17.549Z,21.77
2016-11-19T07:06:17.548Z,21.84
2016-11-19T07:07:17.597Z,21.96
2016-11-19T07:08:17.606Z,21.99
2016-11-19T07:09:17.643Z,21.96
2016-11-19T07:10:17.667Z,21.94
2016-11-19T07:11:17.392Z,21.96
2016-11-19T07:12:17.416Z,21.92
2016-11-19T07:13:17.140Z,21.91
2016-11-19T07:14:17.762Z,21.9
2016-11-19T07:15:17.519Z,21.98
2016-11-19T07:16:17.223Z,21.9
2016-11-19T07:17:17.576Z,22.05
2016-11-19T07:18:17.594Z,22.03
2016-11-19T07:19:17.921Z,22
2016-11-19T07:20:17.947Z,22
2016-11-19T07:21:17.983Z,22.03
2016-11-19T07:22:17.688Z,22.1
2016-11-19T07:23:17.729Z,22.05
2016-11-19T07:24:17.753Z,22
2016-11-19T07:25:17.770Z,22.03
2016-11-19T07:26:18.108Z,22.02
2016-11-19T07:27:18.144Z,22.06
2016-11-19T07:28:18.165Z,22
2016-11-19T07:29:17.894Z,22
2016-11-19T07:30:18.219Z,22.06
2016-11-19T07:31:18.252Z,22.05
2016-11-19T07:32:18.279Z,22.09
2016-11-19T07:33:18.301Z,21.98
2016-11-19T07:34:18.329Z,22.03
2016-11-19T07:35:18.071Z,22.02
2016-11-19T07:36:18.083Z,22.03
2016-11-19T07:37:18.424Z,22.1
2016-11-19T07:38:18.433Z,22.05
2016-11-19T07:39:18.177Z,22.09
2016-11-19T07:40:18.194Z,22.06
2016-11-19T07:41:18.531Z,22.06
2016-11-19T07:42:18.580Z,22.05
2016-11-19T07:43:18.598Z,22.15
2016-11-19T07:44:18.609Z,21.98
2016-11-19T07:45:18.030Z,22.1
2016-11-19T07:46:18.359Z,22.1
2016-11-19T07:47:18.716Z,22.03
2016-11-19T07:48:18.721Z,22.06
2016-11-19T07:49:18.770Z,22.02
2016-11-19T07:50:18.482Z,22.02
2016-11-19T07:51:18.823Z,22.02
2016-11-19T07:52:18.532Z,22.02
2016-11-19T07:53:18.560Z,21.9
2016-11-19T07:54:18.889Z,21.91
2016-11-19T07:55:18.922Z,21.92
2016-11-19T07:56:18.943Z,21.94
2016-11-19T07:57:18.671Z,21.91
2016-11-19T07:58:18.708Z,21.88
2016-11-19T07:59:19.046Z,21.96
2016-11-19T08:00:19.055Z,21.91
2016-11-19T08:01:19.102Z,21.92
2016-11-19T08:02:18.808Z,21.79
2016-11-19T08:03:19.145Z,21.82
2016-11-19T08:04:18.857Z,21.88
2016-11-19T08:05:18.890Z,21.92
2016-11-19T08:06:18.918Z,21.9
2016-11-19T08:07:19.263Z,21.92
2016-11-19T08:08:18.972Z,21.91
2016-11-19T08:09:19.313Z,21.9
2016-11-19T08:10:19.346Z,21.86
2016-11-19T08:11:19.079Z,21.82
2016-11-19T08:12:19.087Z,21.84
2016-11-19T08:13:19.124Z,21.88
2016-11-19T08:14:19.157Z,21.83
2016-11-19T08:15:19.487Z,21.77
2016-11-19T08:16:18.895Z,21.82
2016-11-19T08:17:19.268Z,21.71
2016-11-19T08:18:19.253Z,21.72
2016-11-19T08:19:19.597Z,21.71
2016-11-19T08:20:19.610Z,21.72
2016-11-19T08:21:19.654Z,21.74
2016-11-19T08:22:19.512Z,21.71
2016-11-19T08:23:19.719Z,21.68
2016-11-19T08:24:19.409Z,21.67
2016-11-19T08:25:19.746Z,21.67
2016-11-19T08:26:19.786Z,21.69
2016-11-19T08:27:19.800Z,21.67
2016-11-19T08:28:19.836Z,21.62
2016-11-19T08:29:19.561Z,21.61
2016-11-19T08:30:19.589Z,21.59
2016-11-19T08:31:19.918Z,21.69
2016-11-19T08:32:19.635Z,21.59
2016-11-19T08:33:19.967Z,21.59
2016-11-19T08:34:20.008Z,21.65
2016-11-19T08:35:20.032Z,21.58
2016-11-19T08:36:20.054Z,21.65
2016-11-19T08:37:19.782Z,21.62
2016-11-19T08:38:19.807Z,21.61
2016-11-19T08:39:20.151Z,21.59
2016-11-19T08:40:20.173Z,21.59
2016-11-19T08:41:20.209Z,21.59
2016-11-19T08:42:20.222Z,21.56
2016-11-19T08:43:20.262Z,21.64
2016-11-19T08:44:19.978Z,21.58
2016-11-19T08:45:20.324Z,21.56
2016-11-19T08:46:20.339Z,21.62
2016-11-19T08:47:20.062Z,21.54
2016-11-19T08:48:20.386Z,21.52
2016-11-19T08:49:20.128Z,21.52
2016-11-19T08:50:20.443Z,21.47
2016-11-19T08:51:20.476Z,21.54
2016-11-19T08:52:20.212Z,21.5
2016-11-19T08:53:20.530Z,21.58
2016-11-19T08:54:19.951Z,21.53
2016-11-19T08:55:20.283Z,21.49
2016-11-19T08:56:20.615Z,21.62
2016-11-19T08:57:20.636Z,21.46
2016-11-19T08:58:20.670Z,21.54
2016-11-19T08:59:20.690Z,21.43
2016-11-19T09:00:20.419Z,21.47
2016-11-19T09:01:20.752Z,21.47
2016-11-19T09:02:20.468Z,21.46
2016-11-19T09:03:20.801Z,21.37
2016-11-19T09:04:20.838Z,21.21
2016-11-19T09:05:20.555Z,21.19
2016-11-19T09:06:20.888Z,21.12
2016-11-19T09:07:20.915Z,21.19
2016-11-19T09:08:20.337Z,21.14
2016-11-19T09:09:20.982Z,21.07
2016-11-19T09:10:21.010Z,20.97
2016-11-19T09:11:21.039Z,20.91
2016-11-19T09:12:21.052Z,20.98
2016-11-19T09:13:20.784Z,20.92
2016-11-19T09:14:20.509Z,20.97
2016-11-19T09:15:20.535Z,20.95
2016-11-19T09:16:21.167Z,21.06
2016-11-19T09:17:20.906Z,20.89
2016-11-19T09:18:21.220Z,20.91
2016-11-19T09:19:20.949Z,20.89
2016-11-19T09:20:21.290Z,20.95
2016-11-19T09:21:21.303Z,20.95
2016-11-19T09:22:21.325Z,21.04
2016-11-19T09:23:21.367Z,20.99
2016-11-19T09:24:21.089Z,21.07
2016-11-19T09:25:21.417Z,21.06
2016-11-19T09:26:21.137Z,21.01
2016-11-19T09:27:21.491Z,21.07
2016-11-19T09:28:21.496Z,21.1
2016-11-19T09:29:21.232Z,21.07
2016-11-19T09:30:21.253Z,21.13
2016-11-19T09:31:20.974Z,21.13
2016-11-19T09:32:21.610Z,21.04
2016-11-19T09:33:21.631Z,21.07
2016-11-19T09:34:21.352Z,21.13
2016-11-19T09:35:21.685Z,21.1
2016-11-19T09:36:21.409Z,21.19
2016-11-19T09:37:21.738Z,21.13
2016-11-19T09:38:21.470Z,21.12
2016-11-19T09:39:21.496Z,21.21
2016-11-19T09:40:21.836Z,21.17
2016-11-19T09:41:21.544Z,21.04
2016-11-19T09:43:31.301Z,21.14
2016-11-19T09:44:31.594Z,21.19
2016-11-19T09:45:31.619Z,21.22
2016-11-19T09:46:31.643Z,21.14
2016-11-19T09:47:31.684Z,21.19
2016-11-19T09:48:31.406Z,21.19
2016-11-19T09:49:31.718Z,21.16
2016-11-19T09:50:31.458Z,21.21
2016-11-19T09:51:31.491Z,21.16
2016-11-19T09:52:31.819Z,21.22
2016-11-19T09:53:31.525Z,21.27
2016-11-19T09:54:31.864Z,21.22
2016-11-19T09:55:31.901Z,21.12
2016-11-19T09:56:31.938Z,21.17
2016-11-19T09:57:31.646Z,21.13
2016-11-19T09:58:31.983Z,21.19
2016-11-19T09:59:31.708Z,21.21
2016-11-19T10:00:32.036Z,21.22
2016-11-19T10:01:32.068Z,21.19
2016-11-19T10:02:31.793Z,21.22
2016-11-19T10:03:31.842Z,21.17
2016-11-19T10:04:32.138Z,21.24
2016-11-19T10:05:31.563Z,21.17
2016-11-19T10:06:32.200Z,21.17
2016-11-19T10:07:31.921Z,21.21
2016-11-19T10:08:32.265Z,21.19
2016-11-19T10:09:31.680Z,21.17
2016-11-19T10:10:32.007Z,21.17
2016-11-19T10:11:32.327Z,21.24
2016-11-19T10:12:32.368Z,21.21
2016-11-19T10:13:32.089Z,21.19
2016-11-19T10:14:32.117Z,21.19
2016-11-19T10:15:32.445Z,21.19
2016-11-19T10:16:32.179Z,21.22
2016-11-19T10:17:32.500Z,21.24
2016-11-19T10:18:32.224Z,21.24
2016-11-19T10:19:31.949Z,21.24
2016-11-19T10:20:32.583Z,21.13
2016-11-19T10:21:32.618Z,21.17
2016-11-19T10:22:32.645Z,21.27
2016-11-19T10:23:32.675Z,21.22
2016-11-19T10:24:32.700Z,21.19
2016-11-19T10:25:32.733Z,21.24
2016-11-19T10:26:32.745Z,21.17
2016-11-19T10:27:32.463Z,21.14
2016-11-19T10:28:32.810Z,21.17
2016-11-19T10:29:32.835Z,21.24
2016-11-19T10:30:32.552Z,21.28
2016-11-19T10:31:32.583Z,21.29
2016-11-19T10:32:32.921Z,21.25
2016-11-19T10:33:32.950Z,21.31
2016-11-19T10:34:32.655Z,21.27
2016-11-19T10:35:32.688Z,21.35
2016-11-19T10:36:33.032Z,21.28
2016-11-19T10:37:33.050Z,21.27
2016-11-19T10:38:33.069Z,21.24
2016-11-19T10:39:33.107Z,21.32
2016-11-19T10:40:33.147Z,21.28
2016-11-19T10:41:33.160Z,21.27
2016-11-19T10:42:32.880Z,21.25
2016-11-19T10:43:33.213Z,21.25
2016-11-19T10:44:32.638Z,21.28
2016-11-19T10:45:33.278Z,21.32
2016-11-19T10:46:33.295Z,21.24
2016-11-19T10:47:33.015Z,21.27
2016-11-19T10:48:33.356Z,21.28
2016-11-19T10:49:33.385Z,21.21
2016-11-19T10:50:33.409Z,21.21
2016-11-19T10:51:33.443Z,21.28
2016-11-19T10:52:33.471Z,21.29
2016-11-19T10:53:33.518Z,21.21
2016-11-19T10:54:33.516Z,21.37
2016-11-19T10:55:33.553Z,21.28
2016-11-19T10:56:33.270Z,21.28
2016-11-19T10:57:33.589Z,21.29
2016-11-19T10:58:33.630Z,21.28
2016-11-19T10:59:33.675Z,21.25
2016-11-19T11:00:33.684Z,21.27
2016-11-19T11:01:33.720Z,21.25
2016-11-19T11:02:33.449Z,21.28
2016-11-19T11:03:33.466Z,21.27
2016-11-19T11:04:33.790Z,21.31
2016-11-19T11:05:33.831Z,21.28
2016-11-19T11:06:33.852Z,21.42
2016-11-19T11:07:33.868Z,21.34
2016-11-19T11:08:33.897Z,21.37
2016-11-19T11:09:33.633Z,21.35
2016-11-19T11:10:33.966Z,21.38
2016-11-19T11:11:33.983Z,21.37
2016-11-19T11:12:34.015Z,21.38
2016-11-19T11:13:34.044Z,21.43
2016-11-19T11:14:34.057Z,21.43
2016-11-19T11:15:34.100Z,21.43
2016-11-19T11:16:33.817Z,21.46
2016-11-19T11:17:34.163Z,21.49
2016-11-19T11:18:34.183Z,21.56
2016-11-19T11:19:33.587Z,21.56
2016-11-19T11:20:34.234Z,21.59
2016-11-19T11:21:33.961Z,21.68
2016-11-19T11:22:34.002Z,21.71
2016-11-19T11:23:34.007Z,21.71
2016-11-19T11:24:34.039Z,21.74
2016-11-19T11:25:34.383Z,21.68
2016-11-19T11:26:34.404Z,21.72
2016-11-19T11:27:34.125Z,21.83
2016-11-19T11:28:34.450Z,21.83
2016-11-19T11:29:34.179Z,21.83
2016-11-19T11:30:34.520Z,21.92
2016-11-19T11:31:34.240Z,21.84
2016-11-19T11:32:34.589Z,21.88
2016-11-19T11:33:34.292Z,21.88
2016-11-19T11:34:34.621Z,21.96
2016-11-19T11:35:34.647Z,21.84
2016-11-19T11:36:34.684Z,21.9
2016-11-19T11:37:34.403Z,21.9
2016-11-19T11:38:34.424Z,22.02
2016-11-19T11:39:34.757Z,21.9
2016-11-19T11:40:34.793Z,22
2016-11-19T11:41:34.509Z,21.99
2016-11-19T11:42:34.846Z,22.05
2016-11-19T11:43:34.884Z,21.96
2016-11-19T11:44:34.908Z,22.05
2016-11-19T11:45:34.620Z,22.03
2016-11-19T11:46:34.646Z,22.02
2016-11-19T11:47:35.002Z,22.14
2016-11-19T11:48:35.013Z,22.06
2016-11-19T11:49:34.740Z,22.02
2016-11-19T11:50:35.073Z,22.06
2016-11-19T11:51:35.100Z,22.06
2016-11-19T11:52:34.822Z,22.07
2016-11-19T11:53:34.846Z,22.06
2016-11-19T11:54:34.891Z,22.05
2016-11-19T11:55:35.207Z,22.09
2016-11-19T11:56:34.932Z,22.05
2016-11-19T11:57:34.652Z,22.03
2016-11-19T11:58:35.001Z,22.05
2016-11-19T11:59:35.318Z,21.99
2016-11-19T12:00:35.343Z,22.12
2016-11-19T12:01:35.059Z,22.03
2016-11-19T12:02:35.400Z,22.06
2016-11-19T12:03:35.429Z,22.07
2016-11-19T12:04:35.465Z,21.96
2016-11-19T12:05:35.492Z,22.03
2016-11-19T12:06:35.516Z,21.9
2016-11-19T12:07:35.540Z,21.84
2016-11-19T12:08:35.573Z,21.88
2016-11-19T12:09:35.590Z,21.92
2016-11-19T12:10:35.646Z,21.92
2016-11-19T12:11:35.350Z,21.88
2016-11-19T12:12:35.388Z,21.91
2016-11-19T12:13:35.413Z,21.94
2016-11-19T12:14:35.442Z,21.99
2016-11-19T12:15:35.762Z,21.8
2016-11-19T12:16:35.798Z,21.86
2016-11-19T12:17:35.527Z,21.86
2016-11-19T12:18:35.541Z,21.9
2016-11-19T12:19:35.569Z,21.8
2016-11-19T12:20:35.909Z,21.88
2016-11-19T12:21:35.930Z,21.91
2016-11-19T12:22:35.963Z,21.86
2016-11-19T12:23:35.684Z,21.86
2016-11-19T12:24:36.028Z,21.75
2016-11-19T12:25:36.050Z,21.83
2016-11-19T12:26:36.078Z,21.75
2016-11-19T12:27:36.103Z,21.79
2016-11-19T12:28:36.133Z,21.71
2016-11-19T12:29:36.157Z,21.79
2016-11-19T12:30:36.184Z,21.71
2016-11-19T12:31:35.933Z,21.71
2016-11-19T12:32:36.250Z,21.71
2016-11-19T12:33:36.271Z,21.69
2016-11-19T12:34:35.995Z,21.69
2016-11-19T12:35:36.323Z,21.72
2016-11-19T12:36:36.357Z,21.74
2016-11-19T12:37:36.378Z,21.65
2016-11-19T12:38:35.793Z,21.67
2016-11-19T12:39:36.442Z,21.67
2016-11-19T12:40:36.468Z,21.65
2016-11-19T12:41:36.484Z,21.65
2016-11-19T12:42:35.920Z,21.68
2016-11-19T12:43:36.563Z,21.69
2016-11-19T12:44:36.574Z,21.67
2016-11-19T12:45:36.614Z,21.65
2016-11-19T12:46:36.323Z,21.72
2016-11-19T12:47:36.672Z,21.62
2016-11-19T12:48:36.681Z,21.67
2016-11-19T12:49:36.409Z,21.58
2016-11-19T12:50:36.442Z,21.69
2016-11-19T12:51:36.781Z,21.54
2016-11-19T12:52:36.803Z,21.58
2016-11-19T12:53:36.828Z,21.62
2016-11-19T12:54:36.565Z,21.59
2016-11-19T12:55:36.877Z,21.62